createdAt,value
2022-10-14T00:00:09.351Z,999.34
2022-10-14T00:01:09.400Z,999.33
2022-10-14T00:02:09.451Z,999.37
2022-10-14T00:03:09.410Z,999.34
2022-10-14T00:04:09.430Z,999.35
2022-10-14T00:05:09.446Z,999.37
2022-10-14T00:06:09.467Z,999.39
2022-10-14T00:07:09.487Z,999.34
2022-10-14T00:08:09.506Z,999.36
2022-10-14T00:09:09.524Z,999.34
2022-10-14T00:10:09.546Z,999.34
2022-10-14T00:11:09.563Z,999.36
2022-10-14T00:12:09.582Z,999.34
2022-10-14T00:13:09.600Z,999.34
2022-10-14T00:14:09.619Z,999.37
2022-10-14T00:15:09.636Z,999.32
2022-10-14T00:16:09.655Z,999.33
2022-10-14T00:17:09.698Z,999.33
2022-10-14T00:18:09.694Z,999.33
2022-10-14T00:19:09.714Z,999.35
2022-10-14T00:20:09.730Z,999.33
2022-10-14T00:21:09.754Z,999.34
2022-10-14T00:22:11.273Z,999.31
2022-10-14T00:23:09.787Z,999.31
2022-10-14T00:24:09.806Z,999.32
2022-10-14T00:25:09.826Z,999.29
2022-10-14T00:26:09.842Z,999.31
2022-10-14T00:27:09.868Z,999.29
2022-10-14T00:28:09.884Z,999.26
2022-10-14T00:29:09.901Z,999.3
2022-10-14T00:30:09.920Z,999.28
2022-10-14T00:31:09.939Z,999.28
2022-10-14T00:32:09.957Z,999.21
2022-10-14T00:33:10.010Z,999.2
2022-10-14T00:34:09.994Z,999.23
2022-10-14T00:35:10.016Z,999.22
2022-10-14T00:36:10.033Z,999.21
2022-10-14T00:37:10.054Z,999.2
2022-10-14T00:38:10.070Z,999.23
2022-10-14T00:39:10.094Z,999.26
2022-10-14T00:40:10.106Z,999.28
2022-10-14T00:41:10.129Z,999.27
2022-10-14T00:42:10.146Z,999.28
2022-10-14T00:43:10.167Z,999.29
2022-10-14T00:44:10.184Z,999.28
2022-10-14T00:45:10.207Z,999.27
2022-10-14T00:46:10.218Z,999.25
2022-10-14T00:47:10.242Z,999.24
2022-10-14T00:48:10.256Z,999.26
2022-10-14T00:49:10.303Z,999.23
2022-10-14T00:50:10.295Z,999.22
2022-10-14T00:51:10.317Z,999.21
2022-10-14T00:52:10.332Z,999.23
2022-10-14T00:53:10.354Z,999.22
2022-10-14T00:54:10.374Z,999.19
2022-10-14T00:55:10.392Z,999.25
2022-10-14T00:56:10.404Z,999.2
2022-10-14T00:57:10.429Z,999.23
2022-10-14T00:58:10.447Z,999.22
2022-10-14T00:59:10.468Z,999.2
2022-10-14T01:00:10.484Z,999.24
2022-10-14T01:01:10.533Z,999.2
2022-10-14T01:02:10.521Z,999.21
2022-10-14T01:03:10.545Z,999.17
2022-10-14T01:04:10.560Z,999.21
2022-10-14T01:05:10.609Z,999.19
2022-10-14T01:06:10.594Z,999.17
2022-10-14T01:07:10.616Z,999.17
2022-10-14T01:08:10.632Z,999.17
2022-10-14T01:09:10.655Z,999.19
2022-10-14T01:10:10.674Z,999.14
2022-10-14T01:11:10.691Z,999.17
2022-10-14T01:12:27.862Z,999.14
2022-10-14T01:13:10.731Z,999.2
2022-10-14T01:14:10.747Z,999.18
2022-10-14T01:15:10.766Z,999.18
2022-10-14T01:16:10.787Z,999.15
2022-10-14T01:17:10.803Z,999.16
2022-10-14T01:18:10.823Z,999.15
2022-10-14T01:19:10.843Z,999.17
2022-10-14T01:20:10.861Z,999.16
2022-10-14T01:21:10.900Z,999.14
2022-10-14T01:22:10.900Z,999.17
2022-10-14T01:23:11.020Z,999.14
2022-10-14T01:24:10.937Z,999.16
2022-10-14T01:25:10.956Z,999.13
2022-10-14T01:26:10.974Z,999.11
2022-10-14T01:27:10.990Z,999.13
2022-10-14T01:28:11.010Z,999.16
2022-10-14T01:29:11.025Z,999.13
2022-10-14T01:30:11.049Z,999.14
2022-10-14T01:31:11.065Z,999.15
2022-10-14T01:32:11.085Z,999.08
2022-10-14T01:33:11.104Z,999.13
2022-10-14T01:34:11.123Z,999.14
2022-10-14T01:35:11.139Z,999.1
2022-10-14T01:36:11.167Z,999.09
2022-10-14T01:37:11.202Z,999.12
2022-10-14T01:38:11.199Z,999.1
2022-10-14T01:39:11.216Z,999.08
2022-10-14T01:40:11.234Z,999.12
2022-10-14T01:41:11.253Z,999.12
2022-10-14T01:42:11.273Z,999.09
2022-10-14T01:43:11.290Z,999.06
2022-10-14T01:44:11.309Z,999.05
2022-10-14T01:45:11.326Z,999.02
2022-10-14T01:46:11.352Z,999
2022-10-14T01:47:11.364Z,999.02
2022-10-14T01:48:11.385Z,999.03
2022-10-14T01:49:11.403Z,998.99
2022-10-14T01:50:11.426Z,998.94
2022-10-14T01:51:11.440Z,998.94
2022-10-14T01:52:11.463Z,998.88
2022-10-14T01:53:11.501Z,998.9
2022-10-14T01:54:11.500Z,998.86
2022-10-14T01:55:11.515Z,998.87
2022-10-14T01:56:11.536Z,998.84
2022-10-14T01:57:11.554Z,998.91
2022-10-14T01:58:11.572Z,998.88
2022-10-14T01:59:11.591Z,998.87
2022-10-14T02:00:11.612Z,998.86
2022-10-14T02:01:11.632Z,998.84
2022-10-14T02:02:11.676Z,998.86
2022-10-14T02:03:11.670Z,998.83
2022-10-14T02:04:11.685Z,998.8
2022-10-14T02:05:11.706Z,998.79
2022-10-14T02:06:11.721Z,998.78
2022-10-14T02:07:11.742Z,998.76
2022-10-14T02:08:11.761Z,998.81
2022-10-14T02:09:11.802Z,998.81
2022-10-14T02:10:11.799Z,998.82
2022-10-14T02:11:11.824Z,998.82
2022-10-14T02:12:11.840Z,998.87
2022-10-14T02:13:11.855Z,998.84
2022-10-14T02:14:11.871Z,998.83
2022-10-14T02:15:11.895Z,998.84
2022-10-14T02:16:11.910Z,998.82
2022-10-14T02:17:11.929Z,998.8
2022-10-14T02:18:11.948Z,998.8
2022-10-14T02:19:11.968Z,998.75
2022-10-14T02:20:11.985Z,998.72
2022-10-14T02:21:12.006Z,998.7
2022-10-14T02:22:12.024Z,998.65
2022-10-14T02:23:12.090Z,998.69
2022-10-14T02:24:12.058Z,998.67
2022-10-14T02:25:12.105Z,998.68
2022-10-14T02:26:12.094Z,998.68
2022-10-14T02:27:12.116Z,998.69
2022-10-14T02:28:12.134Z,998.69
2022-10-14T02:29:12.155Z,998.65
2022-10-14T02:30:12.170Z,998.7
2022-10-14T02:31:12.194Z,998.72
2022-10-14T02:32:12.209Z,998.69
2022-10-14T02:33:12.235Z,998.68
2022-10-14T02:34:12.245Z,998.69
2022-10-14T02:35:12.266Z,998.68
2022-10-14T02:36:12.283Z,998.72
2022-10-14T02:37:12.304Z,998.71
2022-10-14T02:38:12.324Z,998.7
2022-10-14T02:39:12.340Z,998.68
2022-10-14T02:40:12.358Z,998.68
2022-10-14T02:41:12.469Z,998.62
2022-10-14T02:42:12.397Z,998.61
2022-10-14T02:43:12.415Z,998.61
2022-10-14T02:44:12.436Z,998.59
2022-10-14T02:45:12.453Z,998.57
2022-10-14T02:46:12.469Z,998.58
2022-10-14T02:47:12.491Z,998.53
2022-10-14T02:48:12.515Z,998.51
2022-10-14T02:49:12.532Z,998.48
2022-10-14T02:50:12.547Z,998.48
2022-10-14T02:51:12.564Z,998.45
2022-10-14T02:52:12.582Z,998.43
2022-10-14T02:53:12.601Z,998.44
2022-10-14T02:54:12.645Z,998.43
2022-10-14T02:55:12.642Z,998.49
2022-10-14T02:56:12.657Z,998.44
2022-10-14T02:57:12.705Z,998.47
2022-10-14T02:58:12.842Z,998.44
2022-10-14T02:59:12.721Z,998.46
2022-10-14T03:00:12.887Z,998.44
2022-10-14T03:01:12.901Z,998.46
2022-10-14T03:02:12.958Z,998.43
2022-10-14T03:03:12.935Z,998.37
2022-10-14T03:04:12.903Z,998.37
2022-10-14T03:05:12.818Z,998.35
2022-10-14T03:06:12.947Z,998.38
2022-10-14T03:07:12.967Z,998.39
2022-10-14T03:08:12.928Z,998.39
2022-10-14T03:09:12.899Z,998.4
2022-10-14T03:10:12.918Z,998.38
2022-10-14T03:11:12.931Z,998.39
2022-10-14T03:12:12.957Z,998.37
2022-10-14T03:13:12.992Z,998.34
2022-10-14T03:14:12.991Z,998.34
2022-10-14T03:15:13.011Z,998.33
2022-10-14T03:16:13.032Z,998.32
2022-10-14T03:17:13.050Z,998.37
2022-10-14T03:18:13.064Z,998.37
2022-10-14T03:19:13.081Z,998.33
2022-10-14T03:20:13.103Z,998.34
2022-10-14T03:21:13.121Z,998.34
2022-10-14T03:22:13.143Z,998.3
2022-10-14T03:23:13.360Z,998.32
2022-10-14T03:24:13.179Z,998.3
2022-10-14T03:25:13.191Z,998.28
2022-10-14T03:26:14.234Z,998.29
2022-10-14T03:27:13.233Z,998.27
2022-10-14T03:28:13.256Z,998.32
2022-10-14T03:29:13.292Z,998.31
2022-10-14T03:30:13.288Z,998.34
2022-10-14T03:31:13.315Z,998.32
2022-10-14T03:32:13.328Z,998.35
2022-10-14T03:33:15.061Z,998.36
2022-10-14T03:34:13.360Z,998.37
2022-10-14T03:35:13.387Z,998.32
2022-10-14T03:36:13.395Z,998.31
2022-10-14T03:37:13.420Z,998.33
2022-10-14T03:38:13.439Z,998.31
2022-10-14T03:39:13.458Z,998.31
2022-10-14T03:40:13.470Z,998.32
2022-10-14T03:41:13.493Z,998.31
2022-10-14T03:42:13.507Z,998.31
2022-10-14T03:43:13.534Z,998.29
2022-10-14T03:44:13.548Z,998.31
2022-10-14T03:45:13.587Z,998.32
2022-10-14T03:46:13.580Z,998.29
2022-10-14T03:47:13.605Z,998.3
2022-10-14T03:48:13.625Z,998.28
2022-10-14T03:49:13.638Z,998.3
2022-10-14T03:50:13.655Z,998.27
2022-10-14T03:51:13.675Z,998.29
2022-10-14T03:52:13.700Z,998.26
2022-10-14T03:53:13.716Z,998.24
2022-10-14T03:54:13.731Z,998.23
2022-10-14T03:55:13.778Z,998.23
2022-10-14T03:56:13.765Z,998.25
2022-10-14T03:57:13.795Z,998.25
2022-10-14T03:58:13.805Z,998.25
2022-10-14T03:59:13.828Z,998.23
2022-10-14T04:00:13.845Z,998.2
2022-10-14T04:01:13.888Z,998.21
2022-10-14T04:02:13.916Z,998.22
2022-10-14T04:03:13.905Z,998.18
2022-10-14T04:04:13.921Z,998.24
2022-10-14T04:05:13.939Z,998.24
2022-10-14T04:06:13.959Z,998.22
2022-10-14T04:07:13.975Z,998.24
2022-10-14T04:08:13.998Z,998.24
2022-10-14T04:09:14.015Z,998.25
2022-10-14T04:10:14.030Z,998.22
2022-10-14T04:11:14.048Z,998.24
2022-10-14T04:12:14.067Z,998.25
2022-10-14T04:13:14.089Z,998.24
2022-10-14T04:14:14.109Z,998.2
2022-10-14T04:15:14.122Z,998.22
2022-10-14T04:16:14.145Z,998.22
2022-10-14T04:17:14.190Z,998.22
2022-10-14T04:18:14.182Z,998.19
2022-10-14T04:19:14.202Z,998.18
2022-10-14T04:20:14.214Z,998.19
2022-10-14T04:21:14.239Z,998.18
2022-10-14T04:22:14.257Z,998.11
2022-10-14T04:23:14.377Z,998.12
2022-10-14T04:24:14.291Z,998.08
2022-10-14T04:25:14.316Z,998.09
2022-10-14T04:26:14.339Z,998.11
2022-10-14T04:27:14.351Z,998.12
2022-10-14T04:28:14.407Z,998.06
2022-10-14T04:29:14.388Z,998.06
2022-10-14T04:30:14.405Z,998.04
2022-10-14T04:31:14.424Z,998.05
2022-10-14T04:32:14.442Z,998.01
2022-10-14T04:33:14.492Z,997.99
2022-10-14T04:34:14.482Z,997.97
2022-10-14T04:35:14.506Z,997.97
2022-10-14T04:36:14.519Z,997.97
2022-10-14T04:37:14.535Z,997.95
2022-10-14T04:38:14.557Z,997.95
2022-10-14T04:39:14.576Z,997.95
2022-10-14T04:40:14.596Z,997.94
2022-10-14T04:41:14.611Z,997.93
2022-10-14T04:42:14.631Z,997.96
2022-10-14T04:43:14.650Z,997.92
2022-10-14T04:44:14.665Z,997.95
2022-10-14T04:45:14.685Z,997.94
2022-10-14T04:46:14.706Z,997.93
2022-10-14T04:47:14.720Z,997.96
2022-10-14T04:48:14.743Z,997.96
2022-10-14T04:49:14.784Z,997.96
2022-10-14T04:50:14.778Z,997.96
2022-10-14T04:51:14.794Z,997.97
2022-10-14T04:52:14.819Z,997.95
2022-10-14T04:53:16.671Z,997.98
2022-10-14T04:54:14.856Z,997.99
2022-10-14T04:55:14.869Z,998.02
2022-10-14T04:56:14.887Z,998
2022-10-14T04:57:14.909Z,998.04
2022-10-14T04:58:14.930Z,998
2022-10-14T04:59:14.944Z,998.01
2022-10-14T05:00:14.964Z,997.99
2022-10-14T05:01:14.991Z,997.99
2022-10-14T05:02:15.132Z,997.99
2022-10-14T05:03:15.023Z,997.96
2022-10-14T05:04:15.042Z,997.95
2022-10-14T05:05:15.098Z,997.96
2022-10-14T05:06:15.078Z,997.94
2022-10-14T05:07:15.099Z,997.94
2022-10-14T05:08:15.116Z,997.93
2022-10-14T05:09:15.133Z,997.89
2022-10-14T05:10:15.157Z,997.89
2022-10-14T05:11:15.169Z,997.85
2022-10-14T05:12:15.192Z,997.82
2022-10-14T05:13:15.209Z,997.8
2022-10-14T05:14:15.229Z,997.83
2022-10-14T05:15:15.246Z,997.8
2022-10-14T05:16:15.267Z,997.8
2022-10-14T05:17:15.286Z,997.82
2022-10-14T05:18:15.303Z,997.81
2022-10-14T05:19:15.320Z,997.79
2022-10-14T05:20:15.342Z,997.75
2022-10-14T05:21:15.381Z,997.76
2022-10-14T05:22:15.377Z,997.75
2022-10-14T05:23:15.447Z,997.78
2022-10-14T05:24:15.418Z,997.75
2022-10-14T05:25:15.433Z,997.76
2022-10-14T05:26:15.451Z,997.79
2022-10-14T05:27:15.469Z,997.75
2022-10-14T05:28:15.589Z,997.75
2022-10-14T05:29:15.509Z,997.76
2022-10-14T05:30:15.528Z,997.77
2022-10-14T05:31:15.548Z,997.76
2022-10-14T05:32:15.566Z,997.74
2022-10-14T05:33:15.582Z,997.73
2022-10-14T05:34:15.599Z,997.69
2022-10-14T05:35:15.619Z,997.66
2022-10-14T05:36:15.636Z,997.63
2022-10-14T05:37:15.682Z,997.68
2022-10-14T05:38:15.677Z,997.65
2022-10-14T05:39:15.699Z,997.68
2022-10-14T05:40:15.711Z,997.72
2022-10-14T05:41:15.731Z,997.74
2022-10-14T05:42:15.753Z,997.75
2022-10-14T05:43:15.772Z,997.74
2022-10-14T05:44:15.784Z,997.73
2022-10-14T05:45:15.808Z,997.74
2022-10-14T05:46:15.823Z,997.76
2022-10-14T05:47:15.845Z,997.73
2022-10-14T05:48:15.861Z,997.74
2022-10-14T05:49:15.881Z,997.74
2022-10-14T05:50:15.910Z,997.76
2022-10-14T05:51:15.920Z,997.72
2022-10-14T05:52:15.939Z,997.75
2022-10-14T05:53:16.001Z,997.79
2022-10-14T05:54:15.974Z,997.78
2022-10-14T05:55:15.994Z,997.75
2022-10-14T05:56:16.013Z,997.75
2022-10-14T05:57:16.031Z,997.76
2022-10-14T05:58:16.047Z,997.75
2022-10-14T05:59:16.068Z,997.79
2022-10-14T06:00:16.089Z,997.75
2022-10-14T06:01:16.107Z,997.76
2022-10-14T06:02:16.128Z,997.79
2022-10-14T06:03:16.181Z,997.75
2022-10-14T06:04:16.157Z,997.76
2022-10-14T06:05:16.180Z,997.76
2022-10-14T06:06:16.196Z,997.74
2022-10-14T06:07:16.216Z,997.77
2022-10-14T06:08:16.232Z,997.71
2022-10-14T06:09:16.277Z,997.71
2022-10-14T06:10:16.273Z,997.73
2022-10-14T06:11:16.290Z,997.68
2022-10-14T06:12:16.309Z,997.73
2022-10-14T06:13:16.330Z,997.72
2022-10-14T06:14:16.350Z,997.75
2022-10-14T06:15:16.367Z,997.76
2022-10-14T06:16:16.385Z,997.78
2022-10-14T06:17:17.574Z,997.8
2022-10-14T06:18:16.422Z,997.81
2022-10-14T06:19:16.438Z,997.8
2022-10-14T06:20:16.458Z,997.76
2022-10-14T06:21:16.477Z,997.78
2022-10-14T06:22:16.499Z,997.78
2022-10-14T06:23:16.615Z,997.73
2022-10-14T06:24:16.535Z,997.73
2022-10-14T06:25:16.575Z,997.72
2022-10-14T06:26:16.569Z,997.73
2022-10-14T06:27:16.589Z,997.77
2022-10-14T06:28:16.682Z,997.74
2022-10-14T06:29:16.623Z,997.8
2022-10-14T06:30:16.647Z,997.75
2022-10-14T06:31:16.665Z,997.81
2022-10-14T06:32:16.680Z,997.79
2022-10-14T06:33:16.700Z,997.8
2022-10-14T06:34:16.719Z,997.81
2022-10-14T06:35:16.738Z,997.82
2022-10-14T06:36:16.758Z,997.77
2022-10-14T06:37:16.775Z,997.79
2022-10-14T06:38:16.795Z,997.76
2022-10-14T06:39:16.811Z,997.81
2022-10-14T06:40:16.835Z,997.8
2022-10-14T06:41:16.876Z,997.76
2022-10-14T06:42:16.869Z,997.72
2022-10-14T06:43:16.886Z,997.78
2022-10-14T06:44:16.907Z,997.75
2022-10-14T06:45:16.923Z,997.73
2022-10-14T06:46:16.944Z,997.74
2022-10-14T06:47:16.961Z,997.76
2022-10-14T06:48:16.983Z,997.77
2022-10-14T06:49:16.997Z,997.74
2022-10-14T06:50:17.018Z,997.79
2022-10-14T06:51:17.038Z,997.8
2022-10-14T06:52:17.055Z,997.79
2022-10-14T06:53:17.072Z,997.78
2022-10-14T06:54:17.095Z,997.8
2022-10-14T06:55:17.110Z,997.8
2022-10-14T06:56:17.133Z,997.77
2022-10-14T06:57:17.171Z,997.76
2022-10-14T06:58:17.168Z,997.75
2022-10-14T06:59:17.187Z,997.69
2022-10-14T07:00:17.212Z,997.71
2022-10-14T07:01:17.285Z,997.7
2022-10-14T07:02:17.243Z,997.74
2022-10-14T07:03:17.260Z,997.71
2022-10-14T07:04:17.281Z,997.72
2022-10-14T07:05:17.294Z,997.75
2022-10-14T07:06:17.321Z,997.74
2022-10-14T07:07:17.333Z,997.71
2022-10-14T07:08:17.352Z,997.68
2022-10-14T07:09:17.373Z,997.7
2022-10-14T07:10:17.390Z,997.74
2022-10-14T07:11:17.409Z,997.71
2022-10-14T07:12:17.426Z,997.71
2022-10-14T07:13:17.567Z,997.69
2022-10-14T07:14:17.465Z,997.66
2022-10-14T07:15:17.488Z,997.67
2022-10-14T07:16:17.505Z,997.66
2022-10-14T07:17:17.523Z,997.7
2022-10-14T07:18:17.539Z,997.7
2022-10-14T07:19:17.613Z,997.67
2022-10-14T07:20:17.576Z,997.66
2022-10-14T07:21:17.598Z,997.64
2022-10-14T07:22:17.629Z,997.67
2022-10-14T07:23:17.835Z,997.64
2022-10-14T07:24:17.752Z,997.64
2022-10-14T07:25:17.672Z,997.65
2022-10-14T07:26:17.693Z,997.68
2022-10-14T07:27:17.762Z,997.68
2022-10-14T07:28:17.796Z,997.67
2022-10-14T07:29:17.775Z,997.68
2022-10-14T07:30:17.791Z,997.7
2022-10-14T07:31:17.785Z,997.72
2022-10-14T07:32:17.803Z,997.71
2022-10-14T07:33:17.826Z,997.66
2022-10-14T07:34:17.837Z,997.68
2022-10-14T07:35:17.860Z,997.64
2022-10-14T07:36:19.894Z,997.67
2022-10-14T07:37:17.899Z,997.64
2022-10-14T07:38:17.914Z,997.63
2022-10-14T07:39:17.936Z,997.64
2022-10-14T07:40:17.954Z,997.62
2022-10-14T07:41:17.970Z,997.65
2022-10-14T07:42:17.990Z,997.65
2022-10-14T07:43:18.010Z,997.61
2022-10-14T07:44:18.027Z,997.63
2022-10-14T07:45:18.071Z,997.61
2022-10-14T07:46:18.065Z,997.63
2022-10-14T07:47:18.098Z,997.6
2022-10-14T07:48:23.083Z,997.62
2022-10-14T07:49:18.122Z,997.61
2022-10-14T07:50:18.139Z,997.6
2022-10-14T07:51:18.162Z,997.6
2022-10-14T07:52:18.178Z,997.63
2022-10-14T07:53:18.198Z,997.63
2022-10-14T07:54:18.215Z,997.64
2022-10-14T07:55:18.236Z,997.67
2022-10-14T07:56:18.251Z,997.67
2022-10-14T07:57:18.274Z,997.73
2022-10-14T07:58:18.293Z,997.69
2022-10-14T07:59:18.311Z,997.68
2022-10-14T08:00:18.330Z,997.68
2022-10-14T08:01:18.390Z,997.69
2022-10-14T08:02:18.379Z,997.6
2022-10-14T08:03:18.384Z,997.61
2022-10-14T08:04:18.406Z,997.59
2022-10-14T08:05:36.931Z,997.63
2022-10-14T08:06:18.456Z,997.58
2022-10-14T08:07:18.526Z,997.58
2022-10-14T08:08:18.486Z,997.57
2022-10-14T08:09:18.542Z,997.57
2022-10-14T08:10:18.529Z,997.53
2022-10-14T08:11:18.536Z,997.51
2022-10-14T08:12:18.686Z,997.47
2022-10-14T08:13:18.575Z,997.46
2022-10-14T08:14:18.599Z,997.48
2022-10-14T08:15:18.614Z,997.46
2022-10-14T08:16:18.634Z,997.45
2022-10-14T08:17:18.674Z,997.46
2022-10-14T08:18:18.670Z,997.45
2022-10-14T08:19:18.689Z,997.43
2022-10-14T08:20:18.781Z,997.44
2022-10-14T08:21:18.725Z,997.42
2022-10-14T08:22:18.919Z,997.37
2022-10-14T08:23:19.816Z,997.35
2022-10-14T08:24:18.788Z,997.39
2022-10-14T08:25:18.801Z,997.39
2022-10-14T08:26:18.821Z,997.38
2022-10-14T08:27:18.840Z,997.32
2022-10-14T08:28:18.900Z,997.35
2022-10-14T08:29:18.878Z,997.38
2022-10-14T08:30:18.900Z,997.37
2022-10-14T08:31:18.924Z,997.36
2022-10-14T08:32:19.129Z,997.36
2022-10-14T08:33:18.978Z,997.35
2022-10-14T08:34:18.973Z,997.35
2022-10-14T08:35:18.991Z,997.32
2022-10-14T08:36:19.019Z,997.32
2022-10-14T08:37:19.031Z,997.34
2022-10-14T08:38:19.056Z,997.33
2022-10-14T08:39:19.073Z,997.33
2022-10-14T08:40:19.091Z,997.31
2022-10-14T08:41:19.107Z,997.32
2022-10-14T08:42:19.374Z,997.28
2022-10-14T08:43:19.145Z,997.28
2022-10-14T08:44:19.166Z,997.29
2022-10-14T08:45:19.181Z,997.25
2022-10-14T08:46:19.203Z,997.24
2022-10-14T08:47:19.228Z,997.21
2022-10-14T08:48:19.244Z,997.21
2022-10-14T08:49:19.283Z,997.23
2022-10-14T08:50:19.279Z,997.27
2022-10-14T08:51:19.296Z,997.29
2022-10-14T08:52:19.649Z,997.25
2022-10-14T08:53:19.336Z,997.26
2022-10-14T08:54:19.354Z,997.31
2022-10-14T08:55:19.375Z,997.26
2022-10-14T08:56:19.398Z,997.28
2022-10-14T08:57:19.415Z,997.31
2022-10-14T08:58:19.626Z,997.33
2022-10-14T08:59:19.452Z,997.27
2022-10-14T09:00:19.476Z,997.29
2022-10-14T09:01:19.492Z,997.25
2022-10-14T09:02:19.683Z,997.26
2022-10-14T09:03:19.529Z,997.3
2022-10-14T09:04:19.659Z,997.26
2022-10-14T09:05:19.591Z,997.3
2022-10-14T09:06:19.584Z,997.28
2022-10-14T09:07:19.605Z,997.32
2022-10-14T09:08:19.625Z,997.29
2022-10-14T09:09:19.648Z,997.31
2022-10-14T09:10:19.662Z,997.37
2022-10-14T09:11:19.681Z,997.32
2022-10-14T09:12:19.978Z,997.33
2022-10-14T09:13:19.722Z,997.3
2022-10-14T09:14:19.740Z,997.28
2022-10-14T09:15:19.763Z,997.3
2022-10-14T09:16:19.777Z,997.28
2022-10-14T09:17:19.799Z,997.27
2022-10-14T09:18:19.821Z,997.24
2022-10-14T09:19:19.837Z,997.29
2022-10-14T09:20:19.881Z,997.32
2022-10-14T09:21:22.755Z,997.29
2022-10-14T09:22:20.203Z,997.29
2022-10-14T09:23:20.115Z,997.24
2022-10-14T09:24:19.933Z,997.19
2022-10-14T09:25:19.953Z,997.18
2022-10-14T09:26:19.972Z,997.17
2022-10-14T09:27:20.172Z,997.15
2022-10-14T09:28:20.039Z,997.15
2022-10-14T09:29:20.037Z,997.15
2022-10-14T09:30:20.052Z,997.17
2022-10-14T09:31:20.092Z,997.18
2022-10-14T09:32:20.331Z,997.18
2022-10-14T09:33:20.115Z,997.16
2022-10-14T09:34:20.369Z,997.1
2022-10-14T09:35:20.151Z,997.1
2022-10-14T09:36:20.169Z,997.09
2022-10-14T09:37:20.477Z,997.08
2022-10-14T09:38:20.209Z,997.04
2022-10-14T09:39:20.229Z,997.04
2022-10-14T09:40:20.249Z,997.02
2022-10-14T09:41:20.270Z,996.98
2022-10-14T09:42:20.288Z,996.98
2022-10-14T09:43:20.304Z,996.97
2022-10-14T09:44:20.326Z,996.94
2022-10-14T09:45:20.359Z,996.94
2022-10-14T09:46:20.366Z,996.89
2022-10-14T09:47:20.701Z,996.9
2022-10-14T09:48:20.407Z,996.86
2022-10-14T09:49:20.422Z,996.86
2022-10-14T09:50:20.444Z,996.86
2022-10-14T09:51:20.466Z,996.9
2022-10-14T09:52:20.485Z,996.92
2022-10-14T09:53:20.524Z,996.89
2022-10-14T09:54:20.524Z,996.84
2022-10-14T09:55:20.541Z,996.84
2022-10-14T09:56:20.790Z,996.83
2022-10-14T09:57:20.865Z,996.85
2022-10-14T09:58:20.630Z,996.84
2022-10-14T09:59:20.620Z,996.74
2022-10-14T10:00:20.644Z,996.79
2022-10-14T10:01:20.660Z,996.78
2022-10-14T10:02:20.689Z,996.74
2022-10-14T10:03:20.705Z,996.77
2022-10-14T10:04:20.727Z,996.75
2022-10-14T10:05:20.779Z,996.78
2022-10-14T10:06:20.855Z,996.79
2022-10-14T10:07:21.189Z,996.75
2022-10-14T10:08:20.899Z,996.71
2022-10-14T10:09:20.939Z,996.66
2022-10-14T10:10:20.939Z,996.62
2022-10-14T10:11:20.901Z,996.65
2022-10-14T10:12:20.923Z,996.62
2022-10-14T10:13:20.947Z,996.59
2022-10-14T10:14:20.919Z,996.58
2022-10-14T10:15:20.930Z,996.59
2022-10-14T10:16:20.956Z,996.6
2022-10-14T10:17:21.183Z,996.58
2022-10-14T10:18:20.996Z,996.56
2022-10-14T10:19:21.007Z,996.57
2022-10-14T10:20:21.028Z,996.54
2022-10-14T10:21:21.052Z,996.5
2022-10-14T10:22:21.088Z,996.45
2022-10-14T10:23:21.384Z,996.4
2022-10-14T10:24:21.108Z,996.46
2022-10-14T10:25:21.162Z,996.44
2022-10-14T10:26:21.148Z,996.44
2022-10-14T10:27:21.445Z,996.48
2022-10-14T10:28:21.213Z,996.45
2022-10-14T10:29:21.204Z,996.44
2022-10-14T10:30:21.232Z,996.43
2022-10-14T10:31:21.345Z,996.4
2022-10-14T10:32:21.552Z,996.44
2022-10-14T10:33:21.290Z,996.44
2022-10-14T10:34:21.304Z,996.45
2022-10-14T10:35:21.329Z,996.43
2022-10-14T10:36:21.429Z,996.45
2022-10-14T10:37:21.566Z,996.42
2022-10-14T10:38:21.383Z,996.41
2022-10-14T10:39:21.403Z,996.36
2022-10-14T10:40:21.422Z,996.37
2022-10-14T10:41:21.465Z,996.34
2022-10-14T10:42:21.761Z,996.31
2022-10-14T10:43:21.489Z,996.27
2022-10-14T10:44:21.500Z,996.28
2022-10-14T10:45:21.523Z,996.27
2022-10-14T10:46:21.541Z,996.26
2022-10-14T10:47:21.568Z,996.29
2022-10-14T10:48:21.583Z,996.28
2022-10-14T10:49:21.601Z,996.27
2022-10-14T10:50:21.622Z,996.25
2022-10-14T10:51:21.644Z,996.24
2022-10-14T10:52:21.868Z,996.17
2022-10-14T10:53:21.688Z,996.16
2022-10-14T10:54:21.699Z,996.1
2022-10-14T10:55:21.724Z,996.1
2022-10-14T10:56:21.744Z,996.01
2022-10-14T10:57:22.017Z,996
2022-10-14T10:58:21.782Z,995.95
2022-10-14T10:59:21.799Z,996.03
2022-10-14T11:00:21.832Z,995.93
2022-10-14T11:01:21.881Z,995.95
2022-10-14T11:02:22.066Z,995.96
2022-10-14T11:03:21.882Z,995.96
2022-10-14T11:04:21.905Z,995.96
2022-10-14T11:05:21.923Z,996.01
2022-10-14T11:06:21.939Z,996.06
2022-10-14T11:07:25.388Z,996.04
2022-10-14T11:08:22.030Z,996.06
2022-10-14T11:09:22.006Z,996.07
2022-10-14T11:10:22.021Z,996.06
2022-10-14T11:11:22.040Z,996.05
2022-10-14T11:12:22.300Z,996.02
2022-10-14T11:13:22.105Z,996.06
2022-10-14T11:14:22.098Z,996.06
2022-10-14T11:15:22.122Z,996.01
2022-10-14T11:16:22.140Z,996.01
2022-10-14T11:17:22.566Z,996.02
2022-10-14T11:18:22.179Z,996.04
2022-10-14T11:19:22.204Z,996.03
2022-10-14T11:20:22.224Z,996
2022-10-14T11:21:22.241Z,995.99
2022-10-14T11:22:22.494Z,995.94
2022-10-14T11:23:22.482Z,995.98
2022-10-14T11:24:22.299Z,995.99
2022-10-14T11:25:22.318Z,995.94
2022-10-14T11:26:22.408Z,995.93
2022-10-14T11:27:23.952Z,995.94
2022-10-14T11:28:22.433Z,995.92
2022-10-14T11:29:22.420Z,995.87
2022-10-14T11:30:22.420Z,995.89
2022-10-14T11:31:22.437Z,995.86
2022-10-14T11:32:22.460Z,995.85
2022-10-14T11:33:22.480Z,995.74
2022-10-14T11:34:22.500Z,995.75
2022-10-14T11:35:22.538Z,995.75
2022-10-14T11:36:22.538Z,995.72
2022-10-14T11:37:22.739Z,995.68
2022-10-14T11:38:22.641Z,995.65
2022-10-14T11:39:22.594Z,995.63
2022-10-14T11:40:22.620Z,995.69
2022-10-14T11:41:22.636Z,995.71
2022-10-14T11:42:22.946Z,995.71
2022-10-14T11:43:22.676Z,995.66
2022-10-14T11:44:22.730Z,995.67
2022-10-14T11:45:22.766Z,995.68
2022-10-14T11:46:22.737Z,995.69
2022-10-14T11:47:22.985Z,995.65
2022-10-14T11:48:22.778Z,995.65
2022-10-14T11:49:22.799Z,995.65
2022-10-14T11:50:22.818Z,995.63
2022-10-14T11:51:22.837Z,995.63
2022-10-14T11:52:22.858Z,995.57
2022-10-14T11:53:22.878Z,995.59
2022-10-14T11:54:22.900Z,995.6
2022-10-14T11:55:22.915Z,995.61
2022-10-14T11:56:22.938Z,995.59
2022-10-14T11:57:23.230Z,995.56
2022-10-14T11:58:22.976Z,995.57
2022-10-14T11:59:22.997Z,995.56
2022-10-14T12:00:23.075Z,995.53
2022-10-14T12:01:23.057Z,995.54
2022-10-14T12:02:23.282Z,995.55
2022-10-14T12:03:23.073Z,995.53
2022-10-14T12:04:23.100Z,995.49
2022-10-14T12:05:23.114Z,995.54
2022-10-14T12:06:23.138Z,995.53
2022-10-14T12:07:23.157Z,995.5
2022-10-14T12:08:23.178Z,995.53
2022-10-14T12:09:23.262Z,995.48
2022-10-14T12:10:23.218Z,995.48
2022-10-14T12:11:23.235Z,995.47
2022-10-14T12:12:23.615Z,995.48
2022-10-14T12:13:23.275Z,995.47
2022-10-14T12:14:23.295Z,995.43
2022-10-14T12:15:23.361Z,995.44
2022-10-14T12:16:23.337Z,995.36
2022-10-14T12:17:23.664Z,995.33
2022-10-14T12:18:23.417Z,995.29
2022-10-14T12:19:23.395Z,995.27
2022-10-14T12:20:23.415Z,995.27
2022-10-14T12:21:23.434Z,995.25
2022-10-14T12:22:23.823Z,995.26
2022-10-14T12:23:23.674Z,995.24
2022-10-14T12:24:23.494Z,995.32
2022-10-14T12:25:23.517Z,995.28
2022-10-14T12:26:23.530Z,995.27
2022-10-14T12:27:23.598Z,995.26
2022-10-14T12:28:23.651Z,995.22
2022-10-14T12:29:23.594Z,995.21
2022-10-14T12:30:23.614Z,995.19